createdAt,value
2023-03-06T00:02:20.651Z,3.58
2023-03-06T00:04:47.405Z,2.78
2023-03-06T00:07:13.916Z,4.25
2023-03-06T00:09:40.339Z,3.58
2023-03-06T00:12:07.431Z,2.90
2023-03-06T00:14:33.954Z,4.75
2023-03-06T00:17:00.369Z,2.78
2023-03-06T00:19:27.893Z,2.38
2023-03-06T00:21:54.824Z,4.38
2023-03-06T00:24:21.338Z,3.10
2023-03-06T00:26:47.770Z,3.45
2023-03-06T00:29:14.250Z,3.65
2023-03-06T00:31:40.865Z,4.85
2023-03-06T00:34:07.365Z,4.35
2023-03-06T00:36:33.808Z,5.50
2023-03-06T00:39:00.249Z,3.50
2023-03-06T00:41:27.136Z,3.45
2023-03-06T00:43:53.599Z,5.18
2023-03-06T00:46:21.418Z,2.67
2023-03-06T00:48:47.824Z,3.13
2023-03-06T00:51:14.235Z,6.30
2023-03-06T00:53:40.672Z,3.45
2023-03-06T00:56:09.096Z,4.70
2023-03-06T00:58:37.238Z,2.75
2023-03-06T01:01:04.283Z,2.90
2023-03-06T01:03:30.988Z,3.10
2023-03-06T01:05:57.884Z,3.83
2023-03-06T01:08:24.437Z,4.68
2023-03-06T01:10:50.941Z,7.55
2023-03-06T01:13:17.411Z,4.60
2023-03-06T01:15:43.825Z,4.07
2023-03-06T01:18:11.337Z,3.58
2023-03-06T01:20:38.121Z,3.13
2023-03-06T01:23:04.576Z,7.57
2023-03-06T01:25:31.097Z,3.65
2023-03-06T01:27:57.546Z,7.90
2023-03-06T01:30:23.959Z,3.85
2023-03-06T01:32:50.466Z,5.20
2023-03-06T01:35:17.276Z,5.05
2023-03-06T01:37:43.823Z,4.75
2023-03-06T01:40:11.986Z,5.57
2023-03-06T01:42:38.764Z,6.38
2023-03-06T01:45:13.829Z,4.45
2023-03-06T01:47:40.427Z,5.50
2023-03-06T01:50:09.593Z,5.32
2023-03-06T01:52:46.131Z,4.40
2023-03-06T01:55:26.169Z,4.63
2023-03-06T01:57:57.580Z,5.20
2023-03-06T02:00:27.325Z,6.35
2023-03-06T02:03:03.837Z,5.00
2023-03-06T02:05:30.453Z,5.53
2023-03-06T02:07:57.714Z,4.97
2023-03-06T02:10:24.901Z,6.63
2023-03-06T02:12:52.076Z,7.47
2023-03-06T02:15:22.143Z,11.85
2023-03-06T02:17:50.712Z,5.88
2023-03-06T02:20:29.707Z,5.18
2023-03-06T02:23:11.464Z,5.25
2023-03-06T02:25:41.292Z,4.22
2023-03-06T02:28:11.653Z,5.20
2023-03-06T02:30:39.018Z,5.60
2023-03-06T02:33:06.073Z,4.72
2023-03-06T02:35:35.030Z,7.35
2023-03-06T02:38:09.199Z,6.00
2023-03-06T02:40:36.627Z,7.65
2023-03-06T02:43:03.403Z,6.90
2023-03-06T02:45:37.658Z,6.57
2023-03-06T02:48:04.945Z,5.65
2023-03-06T02:50:32.151Z,7.55
2023-03-06T02:52:58.844Z,7.80
2023-03-06T02:55:25.362Z,5.78
2023-03-06T02:57:51.886Z,5.30
2023-03-06T03:00:19.214Z,5.90
2023-03-06T03:02:45.797Z,7.95
2023-03-06T03:05:12.345Z,5.25
2023-03-06T03:07:38.780Z,8.40
2023-03-06T03:10:05.686Z,5.32
2023-03-06T03:12:32.725Z,6.20
2023-03-06T03:14:59.306Z,6.80
2023-03-06T03:17:25.806Z,5.07
2023-03-06T03:19:52.241Z,6.20
2023-03-06T03:22:19.376Z,5.43
2023-03-06T03:24:46.741Z,7.07
2023-03-06T03:27:13.818Z,11.88
2023-03-06T03:29:41.417Z,7.78
2023-03-06T03:32:08.251Z,7.18
2023-03-06T03:34:35.094Z,6.45
2023-03-06T03:37:01.655Z,8.48
2023-03-06T03:39:28.214Z,6.78
2023-03-06T03:41:54.829Z,7.93
2023-03-06T03:44:21.463Z,7.70
2023-03-06T03:46:48.028Z,9.50
2023-03-06T03:49:15.018Z,10.43
2023-03-06T03:51:41.564Z,7.50
2023-03-06T03:54:07.988Z,11.57
2023-03-06T03:56:34.605Z,9.73
2023-03-06T03:59:01.106Z,10.32
2023-03-06T04:01:27.699Z,8.93
2023-03-06T04:03:54.427Z,8.07
2023-03-06T04:06:20.998Z,8.93
2023-03-06T04:08:47.407Z,10.30
2023-03-06T04:11:13.829Z,8.50
2023-03-06T04:13:40.386Z,9.18
2023-03-06T04:16:07.257Z,8.18
2023-03-06T04:18:33.829Z,10.55
2023-03-06T04:21:00.299Z,8.40
2023-03-06T04:23:27.810Z,8.88
2023-03-06T04:25:54.309Z,7.35
2023-03-06T04:28:21.041Z,8.43
2023-03-06T04:30:49.911Z,8.25
2023-03-06T04:33:16.719Z,7.63
2023-03-06T04:35:43.265Z,11.10
2023-03-06T04:38:09.806Z,6.43
2023-03-06T04:40:36.477Z,8.95
2023-03-06T04:43:04.091Z,5.82
2023-03-06T04:45:31.629Z,8.45
2023-03-06T04:47:59.128Z,8.80
2023-03-06T04:50:28.335Z,8.82
2023-03-06T04:52:54.833Z,6.38
2023-03-06T04:55:21.255Z,7.43
2023-03-06T04:57:47.969Z,5.93
2023-03-06T05:00:22.999Z,9.07
2023-03-06T05:02:50.447Z,7.15
2023-03-06T05:05:18.230Z,6.40
2023-03-06T05:07:44.970Z,6.55
2023-03-06T05:10:15.301Z,4.88
2023-03-06T05:12:42.258Z,6.57
2023-03-06T05:15:10.686Z,9.10
2023-03-06T05:17:38.161Z,5.93
2023-03-06T05:20:07.618Z,7.32
2023-03-06T05:22:34.739Z,8.95
2023-03-06T05:25:01.517Z,8.65
2023-03-06T05:27:28.462Z,8.93
2023-03-06T05:29:55.015Z,14.60
2023-03-06T05:32:22.368Z,8.27
2023-03-06T05:34:49.072Z,10.75
2023-03-06T05:37:15.590Z,14.15
2023-03-06T05:39:42.670Z,9.55
2023-03-06T05:42:09.105Z,10.35
2023-03-06T05:44:36.353Z,10.07
2023-03-06T05:47:02.843Z,8.35
2023-03-06T05:49:33.979Z,12.65
2023-03-06T05:52:05.824Z,9.25
2023-03-06T05:54:33.624Z,11.65
2023-03-06T05:57:00.156Z,11.30
2023-03-06T05:59:28.479Z,11.00
2023-03-06T06:01:56.050Z,8.20
2023-03-06T06:04:23.889Z,12.85
2023-03-06T06:06:56.191Z,9.95
2023-03-06T06:09:23.354Z,13.30
2023-03-06T06:11:54.422Z,11.25
2023-03-06T06:14:21.428Z,12.80
2023-03-06T06:16:48.456Z,11.82
2023-03-06T06:19:18.732Z,14.95
2023-03-06T06:21:47.784Z,11.13
2023-03-06T06:24:15.931Z,10.18
2023-03-06T06:26:42.899Z,10.43
2023-03-06T06:29:10.539Z,11.63
2023-03-06T06:31:37.615Z,12.38
2023-03-06T06:34:06.448Z,9.32
2023-03-06T06:36:33.622Z,15.25
2023-03-06T06:39:00.389Z,12.60
2023-03-06T06:41:42.595Z,13.70
2023-03-06T06:44:15.517Z,11.52
2023-03-06T06:49:32.075Z,15.60
2023-03-06T06:51:58.850Z,9.27
2023-03-06T06:54:25.750Z,13.93
2023-03-06T06:56:52.280Z,13.57
2023-03-06T06:59:19.049Z,15.45
2023-03-06T07:01:45.551Z,12.60
2023-03-06T07:04:15.749Z,9.68
2023-03-06T07:06:42.794Z,10.32
2023-03-06T07:09:09.526Z,13.90
2023-03-06T07:11:37.616Z,11.30
2023-03-06T07:14:04.133Z,12.75
2023-03-06T07:16:30.614Z,10.90
2023-03-06T07:18:57.031Z,17.02
2023-03-06T07:21:23.723Z,12.25
2023-03-06T07:23:50.306Z,13.88
2023-03-06T07:26:16.784Z,13.18
2023-03-06T07:28:52.326Z,15.43
2023-03-06T07:33:53.321Z,14.15
2023-03-06T07:36:20.674Z,14.32
2023-03-06T07:38:47.677Z,15.27
2023-03-06T07:41:16.295Z,14.95
2023-03-06T07:43:44.755Z,14.18
2023-03-06T07:46:12.792Z,16.83
2023-03-06T07:48:40.185Z,12.15
2023-03-06T07:51:12.167Z,15.50
2023-03-06T07:53:38.705Z,14.15
2023-03-06T07:56:08.876Z,15.98
2023-03-06T07:58:36.489Z,10.98
2023-03-06T08:01:05.571Z,15.05
2023-03-06T08:03:32.514Z,11.63
2023-03-06T08:06:06.352Z,11.57
2023-03-06T08:08:34.748Z,11.65
2023-03-06T08:11:01.334Z,10.02
2023-03-06T08:13:27.892Z,11.43
2023-03-06T08:15:54.695Z,9.10
2023-03-06T08:18:21.176Z,10.32
2023-03-06T08:20:47.592Z,12.45
2023-03-06T08:23:14.145Z,11.98
2023-03-06T08:25:40.550Z,11.25
2023-03-06T08:28:07.597Z,11.77
2023-03-06T08:30:34.319Z,11.45
2023-03-06T08:33:01.314Z,12.68
2023-03-06T08:35:27.919Z,9.18
2023-03-06T08:37:54.422Z,9.90
2023-03-06T08:40:20.924Z,12.98
2023-03-06T08:42:48.185Z,9.25
2023-03-06T08:45:17.857Z,11.95
2023-03-06T08:47:44.328Z,10.02
2023-03-06T08:50:11.535Z,9.80
2023-03-06T08:52:38.258Z,9.70
2023-03-06T08:55:05.212Z,11.90
2023-03-06T08:57:31.935Z,9.48
2023-03-06T08:59:58.416Z,9.43
2023-03-06T09:02:25.079Z,11.98
2023-03-06T09:04:51.606Z,8.50
2023-03-06T09:07:18.073Z,11.98
2023-03-06T09:09:44.614Z,9.82
2023-03-06T09:12:11.088Z,9.82
2023-03-06T09:14:37.570Z,11.25
2023-03-06T09:17:04.066Z,8.88
2023-03-06T09:19:30.545Z,10.90
2023-03-06T09:21:57.908Z,13.65
2023-03-06T09:24:24.429Z,8.18
2023-03-06T09:26:51.819Z,8.48
2023-03-06T09:29:18.686Z,6.47
2023-03-06T09:31:45.887Z,9.73
2023-03-06T09:34:12.501Z,7.18
2023-03-06T09:36:55.037Z,7.25
2023-03-06T09:39:23.430Z,8.10
2023-03-06T09:41:50.806Z,9.52
2023-03-06T09:44:21.574Z,7.90
2023-03-06T09:47:01.161Z,9.75
2023-03-06T09:49:49.480Z,7.45
2023-03-06T09:52:43.507Z,6.72
2023-03-06T09:55:10.296Z,7.78
2023-03-06T09:57:42.533Z,8.55
2023-03-06T10:00:15.287Z,5.10
2023-03-06T10:02:49.452Z,6.63
2023-03-06T10:05:28.737Z,8.55
2023-03-06T10:08:03.251Z,5.28
2023-03-06T10:10:51.383Z,5.78
2023-03-06T10:13:36.743Z,4.15
2023-03-06T10:16:18.538Z,4.60
2023-03-06T10:18:45.221Z,4.47
2023-03-06T10:21:29.663Z,4.15
2023-03-06T10:24:15.089Z,4.05
2023-03-06T10:27:21.638Z,4.13
2023-03-06T10:30:02.620Z,3.45
2023-03-06T10:32:48.276Z,3.90
2023-03-06T10:35:19.242Z,4.00
2023-03-06T10:37:46.820Z,4.43
2023-03-06T10:40:17.242Z,5.78
2023-03-06T10:42:43.704Z,3.92
2023-03-06T10:45:15.684Z,4.88
2023-03-06T10:47:44.099Z,3.70
2023-03-06T10:50:23.280Z,4.32
2023-03-06T10:53:09.095Z,5.22
2023-03-06T10:55:37.705Z,4.35
2023-03-06T10:58:19.519Z,3.05
2023-03-06T11:00:46.363Z,4.22
2023-03-06T11:03:24.086Z,3.28
2023-03-06T11:06:00.050Z,2.90
2023-03-06T11:08:26.509Z,2.78
2023-03-06T11:11:02.722Z,2.85
2023-03-06T11:13:32.496Z,4.40
2023-03-06T11:16:02.998Z,3.85
2023-03-06T11:18:36.121Z,2.88
2023-03-06T11:21:07.268Z,3.72
2023-03-06T11:23:47.345Z,2.45
2023-03-06T11:26:17.129Z,2.85
2023-03-06T11:29:22.247Z,1.70
2023-03-06T11:31:54.351Z,1.60
2023-03-06T11:34:28.704Z,2.35
2023-03-06T11:36:55.254Z,2.35
2023-03-06T11:39:25.226Z,2.30
2023-03-06T11:42:19.740Z,2.10
2023-03-06T11:45:02.920Z,1.70
2023-03-06T11:47:36.305Z,2.10
2023-03-06T11:50:21.469Z,1.90
2023-03-06T11:53:00.421Z,2.90
2023-03-06T11:55:52.682Z,2.55
2023-03-06T11:58:46.335Z,2.35
2023-03-06T12:01:29.294Z,1.73
2023-03-06T12:04:23.105Z,2.00
2023-03-06T12:07:07.976Z,2.05
2023-03-06T12:09:46.888Z,1.85
2023-03-06T12:12:27.205Z,1.80
2023-03-06T12:15:31.564Z,1.23
2023-03-06T12:18:16.644Z,2.13
2023-03-06T12:20:53.965Z,2.63
2023-03-06T12:23:41.961Z,3.83
2023-03-06T12:26:08.347Z,1.63
2023-03-06T12:28:53.620Z,2.10
2023-03-06T12:31:28.651Z,1.05
2023-03-06T12:34:06.004Z,1.27
2023-03-06T12:36:46.952Z,1.88
2023-03-06T12:39:25.948Z,1.38
2023-03-06T12:42:17.756Z,1.20
2023-03-06T12:45:17.480Z,1.30
2023-03-06T12:47:47.528Z,1.50
2023-03-06T12:50:44.584Z,1.20
2023-03-06T12:53:28.774Z,1.30
2023-03-06T12:55:57.455Z,1.40
2023-03-06T12:58:29.924Z,1.10
2023-03-06T13:01:30.666Z,2.05
2023-03-06T13:04:30.981Z,2.22
2023-03-06T13:07:06.977Z,2.08
2023-03-06T13:10:10.970Z,1.63
2023-03-06T13:12:50.190Z,2.00
2023-03-06T13:15:35.271Z,1.40
2023-03-06T13:18:21.450Z,39.17
2023-03-06T13:20:52.700Z,8.90
2023-03-06T13:23:38.334Z,2.35
2023-03-06T13:26:09.256Z,2.33
2023-03-06T13:28:50.630Z,1.90
2023-03-06T13:31:49.318Z,3.35
2023-03-06T13:34:36.036Z,3.50
2023-03-06T13:37:18.361Z,2.78
2023-03-06T13:39:58.596Z,3.95
2023-03-06T13:42:34.008Z,2.17
2023-03-06T13:45:08.305Z,4.40
2023-03-06T13:48:09.684Z,2.88
2023-03-06T13:50:36.001Z,2.63
2023-03-06T13:53:31.378Z,2.08
2023-03-06T13:56:06.447Z,2.33
2023-03-06T13:58:45.069Z,1.58
2023-03-06T14:01:16.391Z,1.77
2023-03-06T14:04:11.669Z,2.33
2023-03-06T14:06:50.177Z,2.38
2023-03-06T14:09:44.863Z,3.42
2023-03-06T14:12:26.444Z,2.47
2023-03-06T14:14:56.788Z,3.90
2023-03-06T14:17:35.353Z,6.35
2023-03-06T14:20:14.172Z,2.00
2023-03-06T14:22:40.881Z,1.80
2023-03-06T14:25:28.534Z,2.13
2023-03-06T14:27:58.322Z,1.63
2023-03-06T14:30:32.220Z,1.88
2023-03-06T14:32:59.097Z,2.17
2023-03-06T14:35:32.038Z,4.25
2023-03-06T14:38:06.113Z,1.98
2023-03-06T14:40:42.675Z,2.47
2023-03-06T14:43:29.327Z,3.25
2023-03-06T14:46:00.725Z,2.10
2023-03-06T14:48:48.557Z,2.88
2023-03-06T14:51:22.213Z,1.80
2023-03-06T14:53:54.476Z,1.70
2023-03-06T14:56:26.069Z,1.30
2023-03-06T14:58:59.892Z,3.05
2023-03-06T15:01:41.295Z,2.05
2023-03-06T15:04:36.615Z,1.63
2023-03-06T15:07:07.882Z,2.10
2023-03-06T15:09:36.699Z,5.70
2023-03-06T15:12:21.733Z,1.83
2023-03-06T15:14:57.086Z,2.08
2023-03-06T15:17:32.804Z,2.05
2023-03-06T15:20:00.356Z,2.63
2023-03-06T15:22:28.824Z,2.90
2023-03-06T15:25:20.880Z,1.80
2023-03-06T15:27:50.242Z,1.92
2023-03-06T15:30:29.270Z,1.90
2023-03-06T15:33:19.870Z,1.55
2023-03-06T15:35:57.917Z,1.73
2023-03-06T15:38:28.802Z,1.77
2023-03-06T15:40:57.649Z,1.42
2023-03-06T15:43:24.355Z,2.78
2023-03-06T15:45:57.647Z,2.30
2023-03-06T15:48:24.309Z,1.50
2023-03-06T15:50:50.976Z,2.00
2023-03-06T15:53:17.463Z,1.52
2023-03-06T15:55:44.297Z,3.15
2023-03-06T15:58:17.627Z,3.33
2023-03-06T16:00:46.981Z,1.98
2023-03-06T16:03:13.435Z,3.30
2023-03-06T16:05:40.085Z,2.03
2023-03-06T16:08:07.352Z,2.15
2023-03-06T16:10:37.490Z,3.97
2023-03-06T16:13:08.494Z,2.33
2023-03-06T16:15:41.068Z,5.78
2023-03-06T16:18:11.842Z,2.20
2023-03-06T16:20:38.550Z,2.88
2023-03-06T16:23:08.179Z,2.83
2023-03-06T16:25:35.226Z,2.20
2023-03-06T17:32:44.147Z,4.43
2023-03-06T19:08:10.560Z,12.70
2023-03-06T19:10:38.874Z,11.82
2023-03-06T19:13:06.003Z,9.77
2023-03-06T19:15:32.916Z,9.30
2023-03-06T19:19:21.333Z,13.98
2023-03-06T19:20:53.644Z,14.65
2023-03-06T19:23:26.800Z,12.25
2023-03-06T19:25:57.650Z,13.05
2023-03-06T19:28:24.387Z,17.60
2023-03-06T19:31:07.162Z,12.60
2023-03-06T19:33:51.484Z,12.55
2023-03-06T20:21:46.653Z,18.23
2023-03-06T20:24:52.158Z,24.25
2023-03-06T20:30:58.053Z,17.85
2023-03-06T20:39:24.496Z,25.05
2023-03-06T20:41:54.337Z,22.73
2023-03-06T20:44:35.853Z,25.98
2023-03-06T20:47:09.060Z,23.88
2023-03-06T20:49:36.621Z,26.08
2023-03-06T20:52:03.622Z,23.02
2023-03-06T20:54:30.187Z,25.20
2023-03-06T20:56:56.793Z,23.83
2023-03-06T21:02:08.587Z,22.17
2023-03-06T21:07:26.474Z,24.88
2023-03-06T21:13:04.192Z,25.85
2023-03-06T21:16:19.710Z,26.25
2023-03-06T21:30:23.517Z,23.92
2023-03-06T21:32:52.085Z,28.98
2023-03-06T21:35:19.728Z,21.13
2023-03-06T21:37:46.639Z,26.88
2023-03-06T21:50:21.150Z,23.30
2023-03-06T21:53:55.615Z,22.20
2023-03-06T21:56:30.271Z,22.63
2023-03-06T22:12:13.801Z,29.27
2023-03-06T23:10:01.598Z,29.20
2023-03-06T23:55:10.987Z,28.88
